Pagrindinis puslapis
METAR-TAF:

METAR-TAF

Oro uostai :

Kermanšahas, Iranas

platuma: 34-16N, ilguma: 047-07E, Aukštis: 1320 m

Dabartinis oras

Ataskaita buvo paskelbta 41 minutes, ne 01:00 UTC
Ramus vėjas
Temperatūra 8°C
Drėgmė 57%
Slėgis 1019 hPa
Matomumas 10 km arba daugiau
nėra debesų žemiau 1500 m ir nėra kamuolinių lietaus debesų

METAR: OICC 140100Z 00000KT CAVOK 08/00 Q1018 A3008

Laikas: 06:11 (01:41 UTC)

Prognozė

Ataskaita buvo paskelbta 2 valandos ir 41 minutes, ne 23:00 UTC
Prognozė galioja nuo 14 metu 00 UTC su 14 metu 09 UTC
Vėjas 8 kt iš Vakarų
Matomumas 10 km arba daugiau
Mažai debesys ne aukštis 3500 ft
Išsisklaidę debesys ne aukštis 10000 ft
Laikinai
nuo 14 metu 07 UTC su 14 metu 09 UTC
Vėjas 18 kt iš Vakarų/Pietvakarių
Mažai debesys ne aukštis 3500 ft, Liūtiniai kamuoliniai debesys.
Išsisklaidę debesys ne aukštis 4000 ft
Su prošvaistėmis ne aukštis 10000 ft

TAF: OICC 132300Z 1400/1409 27008KT 9999 FEW035 SCT100 TEMPO 1407/1409 24018KT FEW035CB SCT040 BKN100

Orai ataskaitas ir orų prognozės (METAR, TAF).

turimą stotys yra geltonos ir raudonos taškus žemėlapyje.

Perkelti pele per norėdami pamatyti stoties vardą.

Tada spustelėkite, norėdami matyti oro stebėjimo ir prognozės.

Norėdami pakeisti žemėlapį: spustelėkite ant žalios mygtukų su juodo kryžiaus žemyn,; žalią mygtuką su brūkšneliu, jei norite nutolinti; arba žalių rodyklių gretimoms žemėlapius.


METAR-TAF: